sensor_id;sensor_type;location;lat;lon;timestamp;P1;durP1;ratioP1;P2;durP2;ratioP2
1062;SDS011;520;50.932;6.962;2022-07-25T00:00:26;8.00;;;7.30;;
1062;SDS011;520;50.932;6.962;2022-07-25T00:02:53;8.23;;;7.43;;
1062;SDS011;520;50.932;6.962;2022-07-25T00:05:21;7.53;;;6.73;;
1062;SDS011;520;50.932;6.962;2022-07-25T00:07:48;7.53;;;6.97;;
1062;SDS011;520;50.932;6.962;2022-07-25T00:10:16;6.90;;;6.40;;
1062;SDS011;520;50.932;6.962;2022-07-25T00:12:43;7.57;;;6.87;;
1062;SDS011;520;50.932;6.962;2022-07-25T00:15:10;7.77;;;7.07;;
1062;SDS011;520;50.932;6.962;2022-07-25T00:17:38;7.77;;;7.07;;
1062;SDS011;520;50.932;6.962;2022-07-25T00:20:06;7.00;;;6.30;;
1062;SDS011;520;50.932;6.962;2022-07-25T00:22:34;8.40;;;7.70;;
1062;SDS011;520;50.932;6.962;2022-07-25T00:25:01;6.90;;;6.40;;
1062;SDS011;520;50.932;6.962;2022-07-25T00:27:28;7.60;;;6.83;;
1062;SDS011;520;50.932;6.962;2022-07-25T00:29:55;7.43;;;6.83;;
1062;SDS011;520;50.932;6.962;2022-07-25T00:32:25;7.23;;;6.53;;
1062;SDS011;520;50.932;6.962;2022-07-25T00:34:52;8.17;;;7.47;;
1062;SDS011;520;50.932;6.962;2022-07-25T00:37:21;8.03;;;7.33;;
1062;SDS011;520;50.932;6.962;2022-07-25T00:39:47;7.57;;;6.70;;
1062;SDS011;520;50.932;6.962;2022-07-25T00:42:14;7.83;;;7.13;;
1062;SDS011;520;50.932;6.962;2022-07-25T00:44:41;8.47;;;7.67;;
1062;SDS011;520;50.932;6.962;2022-07-25T00:47:08;7.53;;;6.93;;
1062;SDS011;520;50.932;6.962;2022-07-25T00:49:36;11.00;;;7.47;;
1062;SDS011;520;50.932;6.962;2022-07-25T00:52:03;8.50;;;7.67;;
1062;SDS011;520;50.932;6.962;2022-07-25T00:54:31;8.53;;;7.57;;
1062;SDS011;520;50.932;6.962;2022-07-25T00:56:58;7.23;;;6.53;;
1062;SDS011;520;50.932;6.962;2022-07-25T00:59:25;7.77;;;7.17;;
1062;SDS011;520;50.932;6.962;2022-07-25T01:01:52;7.57;;;6.77;;
1062;SDS011;520;50.932;6.962;2022-07-25T01:04:19;7.60;;;7.00;;
1062;SDS011;520;50.932;6.962;2022-07-25T01:06:46;8.37;;;7.57;;
1062;SDS011;520;50.932;6.962;2022-07-25T01:09:13;7.80;;;7.00;;
1062;SDS011;520;50.932;6.962;2022-07-25T01:11:41;8.50;;;7.80;;
1062;SDS011;520;50.932;6.962;2022-07-25T01:14:08;8.50;;;7.60;;
1062;SDS011;520;50.932;6.962;2022-07-25T01:16:35;7.37;;;6.77;;
1062;SDS011;520;50.932;6.962;2022-07-25T01:19:02;7.50;;;6.90;;
1062;SDS011;520;50.932;6.962;2022-07-25T01:21:28;7.80;;;7.10;;
1062;SDS011;520;50.932;6.962;2022-07-25T01:23:55;7.50;;;6.80;;
1062;SDS011;520;50.932;6.962;2022-07-25T01:26:22;7.77;;;7.07;;
1062;SDS011;520;50.932;6.962;2022-07-25T01:28:49;7.63;;;6.93;;
1062;SDS011;520;50.932;6.962;2022-07-25T01:31:16;8.00;;;7.30;;
1062;SDS011;520;50.932;6.962;2022-07-25T01:33:43;8.00;;;6.30;;
1062;SDS011;520;50.932;6.962;2022-07-25T01:36:10;8.40;;;7.60;;
1062;SDS011;520;50.932;6.962;2022-07-25T01:38:37;7.67;;;6.97;;
1062;SDS011;520;50.932;6.962;2022-07-25T01:41:04;10.50;;;7.50;;
1062;SDS011;520;50.932;6.962;2022-07-25T01:43:31;7.97;;;7.27;;
1062;SDS011;520;50.932;6.962;2022-07-25T01:45:58;7.93;;;7.00;;
1062;SDS011;520;50.932;6.962;2022-07-25T01:48:25;7.87;;;7.10;;
1062;SDS011;520;50.932;6.962;2022-07-25T01:50:52;8.43;;;7.63;;
1062;SDS011;520;50.932;6.962;2022-07-25T01:53:18;7.30;;;6.70;;
1062;SDS011;520;50.932;6.962;2022-07-25T01:55:45;7.87;;;7.07;;
1062;SDS011;520;50.932;6.962;2022-07-25T01:58:12;8.13;;;7.37;;
1062;SDS011;520;50.932;6.962;2022-07-25T02:00:39;7.30;;;6.70;;
1062;SDS011;520;50.932;6.962;2022-07-25T02:03:07;9.60;;;7.97;;
1062;SDS011;520;50.932;6.962;2022-07-25T02:05:55;8.20;;;7.50;;
1062;SDS011;520;50.932;6.962;2022-07-25T02:08:23;7.47;;;6.87;;
1062;SDS011;520;50.932;6.962;2022-07-25T02:10:49;8.80;;;8.03;;
1062;SDS011;520;50.932;6.962;2022-07-25T02:13:16;7.50;;;6.80;;
1062;SDS011;520;50.932;6.962;2022-07-25T02:15:43;9.13;;;8.33;;
1062;SDS011;520;50.932;6.962;2022-07-25T02:18:10;7.80;;;7.10;;
1062;SDS011;520;50.932;6.962;2022-07-25T02:20:37;8.47;;;7.70;;
1062;SDS011;520;50.932;6.962;2022-07-25T02:23:04;8.10;;;7.40;;
1062;SDS011;520;50.932;6.962;2022-07-25T02:25:31;9.00;;;7.13;;
1062;SDS011;520;50.932;6.962;2022-07-25T02:27:58;8.70;;;8.00;;
1062;SDS011;520;50.932;6.962;2022-07-25T02:30:25;7.47;;;6.83;;
1062;SDS011;520;50.932;6.962;2022-07-25T02:32:52;7.53;;;7.03;;
1062;SDS011;520;50.932;6.962;2022-07-25T02:35:20;7.57;;;6.97;;
1062;SDS011;520;50.932;6.962;2022-07-25T02:37:46;8.10;;;7.40;;
1062;SDS011;520;50.932;6.962;2022-07-25T02:40:13;8.03;;;7.17;;
1062;SDS011;520;50.932;6.962;2022-07-25T02:42:40;7.63;;;6.93;;
1062;SDS011;520;50.932;6.962;2022-07-25T02:45:07;8.20;;;7.40;;
1062;SDS011;520;50.932;6.962;2022-07-25T02:47:34;7.80;;;7.03;;
1062;SDS011;520;50.932;6.962;2022-07-25T02:50:02;7.97;;;7.30;;
1062;SDS011;520;50.932;6.962;2022-07-25T02:52:30;8.20;;;7.50;;
1062;SDS011;520;50.932;6.962;2022-07-25T02:54:57;8.23;;;7.50;;
1062;SDS011;520;50.932;6.962;2022-07-25T02:57:23;7.53;;;6.83;;
1062;SDS011;520;50.932;6.962;2022-07-25T02:59:50;8.00;;;7.40;;
1062;SDS011;520;50.932;6.962;2022-07-25T03:02:17;7.97;;;7.27;;
1062;SDS011;520;50.932;6.962;2022-07-25T03:04:43;7.70;;;6.80;;
1062;SDS011;520;50.932;6.962;2022-07-25T03:07:10;8.60;;;7.90;;
1062;SDS011;520;50.932;6.962;2022-07-25T03:09:37;7.90;;;7.10;;
1062;SDS011;520;50.932;6.962;2022-07-25T03:12:03;7.90;;;7.30;;
1062;SDS011;520;50.932;6.962;2022-07-25T03:14:30;8.30;;;7.57;;
1062;SDS011;520;50.932;6.962;2022-07-25T03:16:57;8.43;;;7.73;;
1062;SDS011;520;50.932;6.962;2022-07-25T03:19:25;7.80;;;7.10;;
1062;SDS011;520;50.932;6.962;2022-07-25T03:21:52;8.37;;;7.53;;
1062;SDS011;520;50.932;6.962;2022-07-25T03:24:20;8.87;;;8.07;;
1062;SDS011;520;50.932;6.962;2022-07-25T03:26:46;8.10;;;7.30;;
1062;SDS011;520;50.932;6.962;2022-07-25T03:29:13;8.13;;;7.33;;
1062;SDS011;520;50.932;6.962;2022-07-25T03:31:40;7.60;;;7.00;;
1062;SDS011;520;50.932;6.962;2022-07-25T03:34:06;9.17;;;8.27;;
1062;SDS011;520;50.932;6.962;2022-07-25T03:36:34;8.17;;;7.47;;
1062;SDS011;520;50.932;6.962;2022-07-25T03:39:01;8.50;;;7.77;;
1062;SDS011;520;50.932;6.962;2022-07-25T03:41:30;9.17;;;7.37;;
1062;SDS011;520;50.932;6.962;2022-07-25T03:44:04;7.87;;;7.27;;
1062;SDS011;520;50.932;6.962;2022-07-25T03:46:33;8.40;;;7.60;;
1062;SDS011;520;50.932;6.962;2022-07-25T03:49:36;10.33;;;7.90;;
1062;SDS011;520;50.932;6.962;2022-07-25T03:52:05;9.30;;;8.40;;
1062;SDS011;520;50.932;6.962;2022-07-25T03:54:32;7.80;;;7.10;;
1062;SDS011;520;50.932;6.962;2022-07-25T03:56:59;8.00;;;7.07;;
1062;SDS011;520;50.932;6.962;2022-07-25T03:59:26;8.23;;;7.23;;
1062;SDS011;520;50.932;6.962;2022-07-25T04:01:53;8.50;;;7.70;;
1062;SDS011;520;50.932;6.962;2022-07-25T04:04:20;7.67;;;7.07;;
1062;SDS011;520;50.932;6.962;2022-07-25T04:06:47;8.47;;;7.77;;
1062;SDS011;520;50.932;6.962;2022-07-25T04:09:16;8.00;;;7.30;;
1062;SDS011;520;50.932;6.962;2022-07-25T04:12:04;10.30;;;8.73;;
1062;SDS011;520;50.932;6.962;2022-07-25T04:14:31;8.00;;;7.20;;
1062;SDS011;520;50.932;6.962;2022-07-25T04:17:06;8.17;;;7.47;;
1062;SDS011;520;50.932;6.962;2022-07-25T04:19:39;8.90;;;8.10;;
1062;SDS011;520;50.932;6.962;2022-07-25T04:22:15;8.10;;;7.43;;
1062;SDS011;520;50.932;6.962;2022-07-25T04:24:41;9.10;;;8.20;;
1062;SDS011;520;50.932;6.962;2022-07-25T04:27:08;7.70;;;7.00;;
1062;SDS011;520;50.932;6.962;2022-07-25T04:29:35;9.27;;;8.33;;
1062;SDS011;520;50.932;6.962;2022-07-25T04:32:17;9.07;;;8.20;;
1062;SDS011;520;50.932;6.962;2022-07-25T04:34:48;8.40;;;7.70;;
1062;SDS011;520;50.932;6.962;2022-07-25T04:37:16;7.87;;;7.20;;
1062;SDS011;520;50.932;6.962;2022-07-25T04:39:43;8.33;;;7.53;;
1062;SDS011;520;50.932;6.962;2022-07-25T04:42:10;7.30;;;6.70;;
1062;SDS011;520;50.932;6.962;2022-07-25T04:44:38;7.87;;;7.23;;
1062;SDS011;520;50.932;6.962;2022-07-25T04:47:05;7.70;;;7.00;;
1062;SDS011;520;50.932;6.962;2022-07-25T04:49:32;7.93;;;7.23;;
1062;SDS011;520;50.932;6.962;2022-07-25T04:51:59;8.33;;;7.53;;
1062;SDS011;520;50.932;6.962;2022-07-25T04:54:25;7.40;;;6.80;;
1062;SDS011;520;50.932;6.962;2022-07-25T04:56:52;8.37;;;7.63;;
1062;SDS011;520;50.932;6.962;2022-07-25T04:59:19;7.47;;;6.87;;
1062;SDS011;520;50.932;6.962;2022-07-25T05:01:48;7.20;;;6.60;;
1062;SDS011;520;50.932;6.962;2022-07-25T05:04:18;7.50;;;6.80;;
1062;SDS011;520;50.932;6.962;2022-07-25T05:06:45;7.07;;;6.57;;
1062;SDS011;520;50.932;6.962;2022-07-25T05:09:11;8.07;;;7.37;;
1062;SDS011;520;50.932;6.962;2022-07-25T05:11:56;8.47;;;7.60;;
1062;SDS011;520;50.932;6.962;2022-07-25T05:14:23;8.17;;;7.30;;
1062;SDS011;520;50.932;6.962;2022-07-25T05:16:53;8.20;;;7.40;;
1062;SDS011;520;50.932;6.962;2022-07-25T05:19:55;9.60;;;7.37;;
1062;SDS011;520;50.932;6.962;2022-07-25T05:22:23;8.00;;;7.27;;
1062;SDS011;520;50.932;6.962;2022-07-25T05:24:56;7.60;;;7.00;;
1062;SDS011;520;50.932;6.962;2022-07-25T05:30:11;9.07;;;7.20;;
1062;SDS011;520;50.932;6.962;2022-07-25T05:32:39;8.13;;;7.03;;
1062;SDS011;520;50.932;6.962;2022-07-25T05:35:06;7.40;;;6.80;;
1062;SDS011;520;50.932;6.962;2022-07-25T05:37:35;7.50;;;6.80;;
1062;SDS011;520;50.932;6.962;2022-07-25T05:40:03;8.40;;;7.00;;
1062;SDS011;520;50.932;6.962;2022-07-25T05:42:31;8.67;;;7.00;;
1062;SDS011;520;50.932;6.962;2022-07-25T05:44:59;8.90;;;8.00;;
1062;SDS011;520;50.932;6.962;2022-07-25T05:47:29;8.30;;;7.00;;
1062;SDS011;520;50.932;6.962;2022-07-25T05:49:55;8.20;;;7.33;;
1062;SDS011;520;50.932;6.962;2022-07-25T05:52:22;7.67;;;6.97;;
1062;SDS011;520;50.932;6.962;2022-07-25T05:54:49;7.73;;;6.93;;
1062;SDS011;520;50.932;6.962;2022-07-25T05:57:16;7.30;;;6.70;;
1062;SDS011;520;50.932;6.962;2022-07-25T05:59:43;7.87;;;7.10;;
1062;SDS011;520;50.932;6.962;2022-07-25T06:02:09;7.20;;;6.53;;
1062;SDS011;520;50.932;6.962;2022-07-25T06:04:36;7.57;;;6.97;;
1062;SDS011;520;50.932;6.962;2022-07-25T06:07:13;7.90;;;7.30;;
1062;SDS011;520;50.932;6.962;2022-07-25T06:09:40;7.93;;;7.23;;
1062;SDS011;520;50.932;6.962;2022-07-25T06:12:06;7.00;;;6.40;;
1062;SDS011;520;50.932;6.962;2022-07-25T06:14:33;7.73;;;7.13;;
1062;SDS011;520;50.932;6.962;2022-07-25T06:17:02;7.27;;;6.57;;
1062;SDS011;520;50.932;6.962;2022-07-25T06:19:29;7.80;;;7.20;;
1062;SDS011;520;50.932;6.962;2022-07-25T06:22:04;9.40;;;8.50;;
1062;SDS011;520;50.932;6.962;2022-07-25T06:24:31;7.20;;;6.60;;
1062;SDS011;520;50.932;6.962;2022-07-25T06:30:07;8.70;;;6.93;;
1062;SDS011;520;50.932;6.962;2022-07-25T06:32:45;7.50;;;6.80;;
1062;SDS011;520;50.932;6.962;2022-07-25T06:35:13;7.70;;;6.43;;
1062;SDS011;520;50.932;6.962;2022-07-25T06:37:40;7.10;;;6.50;;
1062;SDS011;520;50.932;6.962;2022-07-25T06:40:08;7.90;;;6.73;;
1062;SDS011;520;50.932;6.962;2022-07-25T06:42:39;7.30;;;6.60;;
1062;SDS011;520;50.932;6.962;2022-07-25T06:45:08;8.43;;;7.70;;
1062;SDS011;520;50.932;6.962;2022-07-25T06:47:39;7.73;;;6.93;;
1062;SDS011;520;50.932;6.962;2022-07-25T06:50:13;7.07;;;6.47;;
1062;SDS011;520;50.932;6.962;2022-07-25T06:55:59;7.50;;;6.80;;
1062;SDS011;520;50.932;6.962;2022-07-25T06:58:43;7.50;;;6.87;;
1062;SDS011;520;50.932;6.962;2022-07-25T07:01:13;7.77;;;6.93;;
1062;SDS011;520;50.932;6.962;2022-07-25T07:03:57;8.03;;;7.33;;
1062;SDS011;520;50.932;6.962;2022-07-25T07:06:32;7.10;;;6.50;;
1062;SDS011;520;50.932;6.962;2022-07-25T07:09:17;7.40;;;6.70;;
1062;SDS011;520;50.932;6.962;2022-07-25T07:11:53;7.83;;;6.93;;
1062;SDS011;520;50.932;6.962;2022-07-25T07:14:22;6.70;;;6.20;;
1062;SDS011;520;50.932;6.962;2022-07-25T07:16:52;7.53;;;6.93;;
1062;SDS011;520;50.932;6.962;2022-07-25T07:19:20;9.20;;;8.30;;
1062;SDS011;520;50.932;6.962;2022-07-25T07:21:58;6.97;;;6.27;;
1062;SDS011;520;50.932;6.962;2022-07-25T07:24:27;8.53;;;7.83;;
1062;SDS011;520;50.932;6.962;2022-07-25T07:26:54;7.20;;;6.67;;
1062;SDS011;520;50.932;6.962;2022-07-25T07:29:31;7.67;;;6.97;;
1062;SDS011;520;50.932;6.962;2022-07-25T07:32:00;7.20;;;6.50;;
1062;SDS011;520;50.932;6.962;2022-07-25T07:34:27;7.67;;;7.07;;
1062;SDS011;520;50.932;6.962;2022-07-25T07:37:37;8.40;;;7.60;;
1062;SDS011;520;50.932;6.962;2022-07-25T07:40:08;7.93;;;7.23;;
1062;SDS011;520;50.932;6.962;2022-07-25T07:42:51;8.03;;;7.23;;
1062;SDS011;520;50.932;6.962;2022-07-25T07:45:28;8.17;;;7.37;;
1062;SDS011;520;50.932;6.962;2022-07-25T07:48:01;8.57;;;7.17;;
1062;SDS011;520;50.932;6.962;2022-07-25T07:50:27;7.87;;;7.27;;
1062;SDS011;520;50.932;6.962;2022-07-25T07:52:57;7.93;;;6.70;;
1062;SDS011;520;50.932;6.962;2022-07-25T07:55:39;7.17;;;6.47;;
1062;SDS011;520;50.932;6.962;2022-07-25T07:58:37;7.73;;;7.03;;
1062;SDS011;520;50.932;6.962;2022-07-25T08:01:06;8.03;;;7.27;;
1062;SDS011;520;50.932;6.962;2022-07-25T08:06:31;7.70;;;6.90;;
1062;SDS011;520;50.932;6.962;2022-07-25T08:08:58;6.90;;;6.30;;
1062;SDS011;520;50.932;6.962;2022-07-25T08:11:25;9.23;;;6.90;;
1062;SDS011;520;50.932;6.962;2022-07-25T08:13:51;7.20;;;6.53;;
1062;SDS011;520;50.932;6.962;2022-07-25T08:16:27;8.20;;;5.93;;
1062;SDS011;520;50.932;6.962;2022-07-25T08:18:54;7.07;;;6.37;;
1062;SDS011;520;50.932;6.962;2022-07-25T08:21:21;6.60;;;6.00;;
1062;SDS011;520;50.932;6.962;2022-07-25T08:23:55;7.10;;;6.50;;
1062;SDS011;520;50.932;6.962;2022-07-25T08:26:22;6.47;;;5.90;;
1062;SDS011;520;50.932;6.962;2022-07-25T08:28:49;7.20;;;6.60;;
1062;SDS011;520;50.932;6.962;2022-07-25T08:31:43;6.40;;;5.80;;
1062;SDS011;520;50.932;6.962;2022-07-25T08:34:09;7.30;;;6.70;;
1062;SDS011;520;50.932;6.962;2022-07-25T08:36:36;8.87;;;7.87;;
1062;SDS011;520;50.932;6.962;2022-07-25T08:39:03;8.00;;;7.40;;
1062;SDS011;520;50.932;6.962;2022-07-25T08:41:41;7.00;;;6.40;;
1062;SDS011;520;50.932;6.962;2022-07-25T08:44:14;7.33;;;6.73;;
1062;SDS011;520;50.932;6.962;2022-07-25T08:46:50;7.30;;;6.70;;
1062;SDS011;520;50.932;6.962;2022-07-25T08:49:17;7.10;;;6.60;;
1062;SDS011;520;50.932;6.962;2022-07-25T08:51:44;7.23;;;6.63;;
1062;SDS011;520;50.932;6.962;2022-07-25T08:54:11;8.10;;;7.40;;
1062;SDS011;520;50.932;6.962;2022-07-25T08:56:40;8.00;;;7.20;;
1062;SDS011;520;50.932;6.962;2022-07-25T08:59:10;11.50;;;7.67;;
1062;SDS011;520;50.932;6.962;2022-07-25T09:01:37;7.07;;;6.37;;
1062;SDS011;520;50.932;6.962;2022-07-25T09:04:07;9.73;;;7.50;;
1062;SDS011;520;50.932;6.962;2022-07-25T09:06:35;7.20;;;6.50;;
1062;SDS011;520;50.932;6.962;2022-07-25T09:09:03;7.43;;;6.80;;
1062;SDS011;520;50.932;6.962;2022-07-25T09:11:31;7.10;;;6.50;;
1062;SDS011;520;50.932;6.962;2022-07-25T09:14:03;7.40;;;6.50;;
1062;SDS011;520;50.932;6.962;2022-07-25T09:16:34;7.07;;;6.37;;
1062;SDS011;520;50.932;6.962;2022-07-25T09:19:05;7.33;;;6.50;;
1062;SDS011;520;50.932;6.962;2022-07-25T09:21:36;6.60;;;6.10;;
1062;SDS011;520;50.932;6.962;2022-07-25T09:24:08;6.63;;;6.13;;
1062;SDS011;520;50.932;6.962;2022-07-25T09:26:47;7.70;;;7.00;;
1062;SDS011;520;50.932;6.962;2022-07-25T09:29:20;9.50;;;6.60;;
1062;SDS011;520;50.932;6.962;2022-07-25T09:31:49;6.03;;;5.43;;
1062;SDS011;520;50.932;6.962;2022-07-25T09:34:32;6.67;;;6.07;;
1062;SDS011;520;50.932;6.962;2022-07-25T09:37:04;6.93;;;6.17;;
1062;SDS011;520;50.932;6.962;2022-07-25T09:39:38;6.73;;;6.13;;
1062;SDS011;520;50.932;6.962;2022-07-25T09:42:15;7.27;;;6.77;;
1062;SDS011;520;50.932;6.962;2022-07-25T09:45:00;7.03;;;6.50;;
1062;SDS011;520;50.932;6.962;2022-07-25T09:47:37;7.17;;;6.40;;
1062;SDS011;520;50.932;6.962;2022-07-25T09:50:20;6.97;;;6.37;;
1062;SDS011;520;50.932;6.962;2022-07-25T09:52:50;6.80;;;6.30;;
1062;SDS011;520;50.932;6.962;2022-07-25T09:55:18;6.40;;;5.90;;
1062;SDS011;520;50.932;6.962;2022-07-25T09:57:47;6.90;;;6.33;;
1062;SDS011;520;50.932;6.962;2022-07-25T10:00:19;6.63;;;6.03;;
1062;SDS011;520;50.932;6.962;2022-07-25T10:08:38;8.93;;;7.10;;
1062;SDS011;520;50.932;6.962;2022-07-25T10:11:20;6.90;;;6.20;;
1062;SDS011;520;50.932;6.962;2022-07-25T10:13:48;7.73;;;7.03;;
1062;SDS011;520;50.932;6.962;2022-07-25T10:16:18;8.10;;;6.47;;
1062;SDS011;520;50.932;6.962;2022-07-25T10:18:50;7.20;;;6.60;;
1062;SDS011;520;50.932;6.962;2022-07-25T10:21:20;7.60;;;6.90;;
1062;SDS011;520;50.932;6.962;2022-07-25T10:23:56;7.07;;;6.50;;
1062;SDS011;520;50.932;6.962;2022-07-25T10:26:26;8.07;;;7.03;;
1062;SDS011;520;50.932;6.962;2022-07-25T10:28:54;8.27;;;7.47;;
1062;SDS011;520;50.932;6.962;2022-07-25T10:31:40;10.40;;;7.00;;
1062;SDS011;520;50.932;6.962;2022-07-25T10:34:29;8.27;;;7.50;;
1062;SDS011;520;50.932;6.962;2022-07-25T10:36:56;9.87;;;7.47;;
1062;SDS011;520;50.932;6.962;2022-07-25T10:39:55;7.50;;;6.80;;
1062;SDS011;520;50.932;6.962;2022-07-25T10:42:22;8.30;;;7.57;;
1062;SDS011;520;50.932;6.962;2022-07-25T10:45:00;9.63;;;6.97;;
1062;SDS011;520;50.932;6.962;2022-07-25T10:47:40;7.80;;;7.10;;
1062;SDS011;520;50.932;6.962;2022-07-25T10:50:19;7.67;;;6.93;;
1062;SDS011;520;50.932;6.962;2022-07-25T10:53:13;7.50;;;6.67;;
1062;SDS011;520;50.932;6.962;2022-07-25T10:55:39;8.30;;;6.87;;
1062;SDS011;520;50.932;6.962;2022-07-25T10:58:44;6.80;;;6.10;;
1062;SDS011;520;50.932;6.962;2022-07-25T11:01:28;6.47;;;5.97;;
1062;SDS011;520;50.932;6.962;2022-07-25T11:04:00;9.30;;;8.40;;
1062;SDS011;520;50.932;6.962;2022-07-25T11:06:30;7.00;;;6.27;;
1062;SDS011;520;50.932;6.962;2022-07-25T11:11:53;8.93;;;6.50;;
1062;SDS011;520;50.932;6.962;2022-07-25T11:14:28;6.30;;;5.70;;
1062;SDS011;520;50.932;6.962;2022-07-25T11:17:10;8.93;;;7.57;;
1062;SDS011;520;50.932;6.962;2022-07-25T11:19:40;6.33;;;5.77;;
1062;SDS011;520;50.932;6.962;2022-07-25T11:22:08;6.70;;;6.10;;
1062;SDS011;520;50.932;6.962;2022-07-25T11:24:45;6.43;;;5.83;;
1062;SDS011;520;50.932;6.962;2022-07-25T11:27:23;11.43;;;7.00;;
1062;SDS011;520;50.932;6.962;2022-07-25T11:29:53;6.77;;;6.13;;
1062;SDS011;520;50.932;6.962;2022-07-25T11:32:40;7.13;;;6.40;;
1062;SDS011;520;50.932;6.962;2022-07-25T11:35:09;6.83;;;6.20;;
1062;SDS011;520;50.932;6.962;2022-07-25T11:37:39;7.77;;;6.60;;
1062;SDS011;520;50.932;6.962;2022-07-25T11:40:07;6.03;;;5.53;;
1062;SDS011;520;50.932;6.962;2022-07-25T11:42:45;10.00;;;6.10;;
1062;SDS011;520;50.932;6.962;2022-07-25T11:47:48;5.90;;;5.40;;
1062;SDS011;520;50.932;6.962;2022-07-25T11:50:30;7.70;;;5.37;;
1062;SDS011;520;50.932;6.962;2022-07-25T11:53:01;6.23;;;5.70;;
1062;SDS011;520;50.932;6.962;2022-07-25T11:55:31;6.60;;;5.93;;
1062;SDS011;520;50.932;6.962;2022-07-25T11:58:03;7.00;;;5.40;;
1062;SDS011;520;50.932;6.962;2022-07-25T12:00:33;8.03;;;5.93;;
1062;SDS011;520;50.932;6.962;2022-07-25T12:03:08;5.53;;;5.00;;
1062;SDS011;520;50.932;6.962;2022-07-25T12:05:40;6.27;;;5.67;;
1062;SDS011;520;50.932;6.962;2022-07-25T12:08:08;5.47;;;5.00;;
1062;SDS011;520;50.932;6.962;2022-07-25T12:10:40;5.47;;;4.70;;
1062;SDS011;520;50.932;6.962;2022-07-25T12:13:09;5.70;;;5.20;;
1062;SDS011;520;50.932;6.962;2022-07-25T12:15:46;8.10;;;5.53;;
1062;SDS011;520;50.932;6.962;2022-07-25T12:18:13;6.00;;;5.50;;
1062;SDS011;520;50.932;6.962;2022-07-25T12:20:41;6.00;;;4.47;;
1062;SDS011;520;50.932;6.962;2022-07-25T12:23:12;4.33;;;3.93;;
1062;SDS011;520;50.932;6.962;2022-07-25T12:25:42;6.53;;;5.80;;
1062;SDS011;520;50.932;6.962;2022-07-25T12:28:27;6.20;;;5.37;;
1062;SDS011;520;50.932;6.962;2022-07-25T12:30:54;7.40;;;5.57;;
1062;SDS011;520;50.932;6.962;2022-07-25T12:33:22;7.30;;;5.47;;
1062;SDS011;520;50.932;6.962;2022-07-25T12:36:26;5.90;;;5.23;;
1062;SDS011;520;50.932;6.962;2022-07-25T12:38:52;5.00;;;4.20;;
1062;SDS011;520;50.932;6.962;2022-07-25T12:41:19;5.30;;;4.90;;
1062;SDS011;520;50.932;6.962;2022-07-25T12:43:54;5.40;;;4.90;;
1062;SDS011;520;50.932;6.962;2022-07-25T12:46:23;5.40;;;4.90;;
1062;SDS011;520;50.932;6.962;2022-07-25T12:48:50;7.03;;;4.80;;
1062;SDS011;520;50.932;6.962;2022-07-25T12:51:20;11.33;;;5.60;;
1062;SDS011;520;50.932;6.962;2022-07-25T12:53:50;6.20;;;4.10;;
1062;SDS011;520;50.932;6.962;2022-07-25T12:56:25;4.93;;;4.10;;
1062;SDS011;520;50.932;6.962;2022-07-25T12:58:52;8.37;;;5.53;;
1062;SDS011;520;50.932;6.962;2022-07-25T13:01:20;6.97;;;4.50;;
1062;SDS011;520;50.932;6.962;2022-07-25T13:03:47;4.60;;;4.13;;
1062;SDS011;520;50.932;6.962;2022-07-25T13:06:14;6.10;;;3.13;;
1062;SDS011;520;50.932;6.962;2022-07-25T13:08:45;3.83;;;3.43;;
1062;SDS011;520;50.932;6.962;2022-07-25T13:11:12;4.17;;;3.87;;
1062;SDS011;520;50.932;6.962;2022-07-25T13:13:44;5.07;;;3.93;;
1062;SDS011;520;50.932;6.962;2022-07-25T13:16:12;6.73;;;3.47;;
1062;SDS011;520;50.932;6.962;2022-07-25T13:18:40;6.13;;;4.40;;
1062;SDS011;520;50.932;6.962;2022-07-25T13:21:09;5.20;;;3.73;;
1062;SDS011;520;50.932;6.962;2022-07-25T13:23:37;3.70;;;3.33;;
1062;SDS011;520;50.932;6.962;2022-07-25T13:26:10;4.03;;;3.17;;
1062;SDS011;520;50.932;6.962;2022-07-25T13:28:50;4.13;;;3.57;;
1062;SDS011;520;50.932;6.962;2022-07-25T13:31:42;3.23;;;2.90;;
1062;SDS011;520;50.932;6.962;2022-07-25T13:37:27;3.40;;;3.10;;
1062;SDS011;520;50.932;6.962;2022-07-25T13:42:22;3.27;;;2.97;;
1062;SDS011;520;50.932;6.962;2022-07-25T13:44:49;3.63;;;2.80;;
1062;SDS011;520;50.932;6.962;2022-07-25T13:47:20;4.23;;;2.30;;
1062;SDS011;520;50.932;6.962;2022-07-25T13:49:59;3.57;;;2.80;;
1062;SDS011;520;50.932;6.962;2022-07-25T13:52:30;2.83;;;2.63;;
1062;SDS011;520;50.932;6.962;2022-07-25T13:55:06;2.70;;;2.50;;
1062;SDS011;520;50.932;6.962;2022-07-25T14:04:51;3.00;;;2.50;;
1062;SDS011;520;50.932;6.962;2022-07-25T14:07:36;3.90;;;2.10;;
1062;SDS011;520;50.932;6.962;2022-07-25T14:10:28;2.70;;;1.83;;
1062;SDS011;520;50.932;6.962;2022-07-25T14:13:19;4.37;;;2.30;;
1062;SDS011;520;50.932;6.962;2022-07-25T14:15:49;2.63;;;2.40;;
1062;SDS011;520;50.932;6.962;2022-07-25T14:18:23;3.90;;;2.53;;
1062;SDS011;520;50.932;6.962;2022-07-25T14:21:00;2.50;;;2.30;;
1062;SDS011;520;50.932;6.962;2022-07-25T14:23:27;5.10;;;2.33;;
1062;SDS011;520;50.932;6.962;2022-07-25T14:26:11;3.23;;;2.63;;
1062;SDS011;520;50.932;6.962;2022-07-25T14:29:01;6.07;;;3.47;;
1062;SDS011;520;50.932;6.962;2022-07-25T14:31:50;4.07;;;2.30;;
1062;SDS011;520;50.932;6.962;2022-07-25T14:34:39;5.70;;;4.43;;
1062;SDS011;520;50.932;6.962;2022-07-25T14:37:08;3.43;;;3.00;;
1062;SDS011;520;50.932;6.962;2022-07-25T14:39:57;3.87;;;3.13;;
1062;SDS011;520;50.932;6.962;2022-07-25T14:42:33;4.73;;;2.43;;
1062;SDS011;520;50.932;6.962;2022-07-25T14:45:28;4.03;;;2.20;;
1062;SDS011;520;50.932;6.962;2022-07-25T14:48:21;3.93;;;2.43;;
1062;SDS011;520;50.932;6.962;2022-07-25T14:50:51;4.13;;;2.40;;
1062;SDS011;520;50.932;6.962;2022-07-25T14:53:23;2.80;;;2.50;;
1062;SDS011;520;50.932;6.962;2022-07-25T14:56:14;2.30;;;2.20;;
1062;SDS011;520;50.932;6.962;2022-07-25T14:58:53;4.80;;;2.50;;
1062;SDS011;520;50.932;6.962;2022-07-25T15:01:19;2.70;;;2.30;;
1062;SDS011;520;50.932;6.962;2022-07-25T15:03:52;5.43;;;3.90;;
1062;SDS011;520;50.932;6.962;2022-07-25T15:06:21;2.50;;;2.40;;
1062;SDS011;520;50.932;6.962;2022-07-25T15:09:06;3.53;;;2.20;;
1062;SDS011;520;50.932;6.962;2022-07-25T15:12:15;2.97;;;2.10;;
1062;SDS011;520;50.932;6.962;2022-07-25T15:14:45;4.20;;;3.17;;
1062;SDS011;520;50.932;6.962;2022-07-25T15:17:13;2.87;;;2.30;;
1062;SDS011;520;50.932;6.962;2022-07-25T15:19:55;4.17;;;2.57;;
1062;SDS011;520;50.932;6.962;2022-07-25T15:26:32;4.67;;;2.77;;
1062;SDS011;520;50.932;6.962;2022-07-25T15:29:11;4.00;;;3.03;;
1062;SDS011;520;50.932;6.962;2022-07-25T15:32:07;7.87;;;2.67;;
1062;SDS011;520;50.932;6.962;2022-07-25T15:35:02;3.63;;;2.70;;
1062;SDS011;520;50.932;6.962;2022-07-25T15:37:31;5.57;;;2.60;;
1062;SDS011;520;50.932;6.962;2022-07-25T15:40:10;5.00;;;2.50;;
1062;SDS011;520;50.932;6.962;2022-07-25T15:46:43;5.03;;;2.50;;
1062;SDS011;520;50.932;6.962;2022-07-25T15:49:48;3.07;;;2.60;;
1062;SDS011;520;50.932;6.962;2022-07-25T15:52:27;4.70;;;3.10;;
1062;SDS011;520;50.932;6.962;2022-07-25T15:55:19;3.93;;;2.73;;
1062;SDS011;520;50.932;6.962;2022-07-25T16:01:51;2.87;;;2.57;;
1062;SDS011;520;50.932;6.962;2022-07-25T16:05:01;3.80;;;2.50;;
1062;SDS011;520;50.932;6.962;2022-07-25T16:07:35;2.60;;;2.03;;
1062;SDS011;520;50.932;6.962;2022-07-25T16:13:14;3.00;;;2.70;;
1062;SDS011;520;50.932;6.962;2022-07-25T16:16:00;3.17;;;2.00;;
1062;SDS011;520;50.932;6.962;2022-07-25T16:22:44;8.70;;;3.00;;
1062;SDS011;520;50.932;6.962;2022-07-25T16:29:23;3.60;;;3.30;;
1062;SDS011;520;50.932;6.962;2022-07-25T16:31:58;4.83;;;2.40;;
1062;SDS011;520;50.932;6.962;2022-07-25T16:34:34;3.07;;;2.20;;
1062;SDS011;520;50.932;6.962;2022-07-25T16:37:40;4.70;;;4.20;;
1062;SDS011;520;50.932;6.962;2022-07-25T16:40:08;3.80;;;2.37;;
1062;SDS011;520;50.932;6.962;2022-07-25T16:43:48;5.90;;;2.43;;
1062;SDS011;520;50.932;6.962;2022-07-25T16:45:57;3.40;;;1.97;;
1062;SDS011;520;50.932;6.962;2022-07-25T16:48:57;3.83;;;2.40;;
1062;SDS011;520;50.932;6.962;2022-07-25T16:51:40;3.90;;;2.70;;
1062;SDS011;520;50.932;6.962;2022-07-25T16:58:03;4.50;;;2.97;;
1062;SDS011;520;50.932;6.962;2022-07-25T17:00:51;6.43;;;2.73;;
1062;SDS011;520;50.932;6.962;2022-07-25T17:03:50;3.37;;;2.20;;
1062;SDS011;520;50.932;6.962;2022-07-25T17:06:49;3.60;;;3.10;;